createdAt,value
2022-10-02T00:01:09.791Z,65.50
2022-10-02T00:03:38.804Z,65.50
2022-10-02T00:06:14.509Z,65.40
2022-10-02T00:08:41.882Z,65.40
2022-10-02T00:11:14.755Z,65.20
2022-10-02T00:13:57.695Z,65.00
2022-10-02T00:16:28.021Z,65.00
2022-10-02T00:18:55.947Z,64.90
2022-10-02T00:21:41.538Z,65.00
2022-10-02T00:24:15.403Z,65.00
2022-10-02T00:26:47.680Z,64.80
2022-10-02T00:29:20.315Z,64.80
2022-10-02T00:31:46.956Z,64.80
2022-10-02T00:34:21.580Z,64.70
2022-10-02T00:37:04.549Z,64.60
2022-10-02T00:39:52.219Z,64.40
2022-10-02T00:42:48.216Z,64.40
2022-10-02T00:45:33.529Z,64.30
2022-10-02T00:48:08.526Z,63.60
2022-10-02T00:51:08.616Z,63.60
2022-10-02T00:54:17.612Z,63.70
2022-10-02T00:57:22.187Z,64.00
2022-10-02T01:00:08.817Z,63.90
2022-10-02T01:02:44.756Z,63.70
2022-10-02T01:05:13.497Z,63.70
2022-10-02T01:07:43.407Z,63.60
2022-10-02T01:10:12.227Z,63.70
2022-10-02T01:12:39.676Z,63.80
2022-10-02T01:15:18.532Z,63.70
2022-10-02T01:17:52.336Z,63.80
2022-10-02T01:20:28.852Z,63.70
2022-10-02T01:23:05.293Z,63.70
2022-10-02T01:25:32.510Z,63.60
2022-10-02T01:27:59.282Z,63.40
2022-10-02T01:30:26.168Z,63.50
2022-10-02T01:32:57.318Z,63.50
2022-10-02T01:35:27.722Z,63.50
2022-10-02T01:37:55.171Z,63.50
2022-10-02T01:40:29.350Z,63.50
2022-10-02T01:42:59.336Z,63.50
2022-10-02T01:46:08.899Z,63.30
2022-10-02T01:49:17.176Z,63.30
2022-10-02T01:51:52.863Z,63.10
2022-10-02T01:54:41.984Z,62.90
2022-10-02T01:57:23.584Z,63.20
2022-10-02T02:00:19.028Z,63.40
2022-10-02T02:03:06.862Z,63.50
2022-10-02T02:05:49.827Z,63.50
2022-10-02T02:08:26.848Z,63.80
2022-10-02T02:11:18.673Z,63.70
2022-10-02T02:13:46.930Z,63.90
2022-10-02T02:16:36.297Z,64.70
2022-10-02T02:19:24.302Z,64.40
2022-10-02T02:21:58.564Z,64.50
2022-10-02T02:24:30.878Z,64.60
2022-10-02T02:27:00.592Z,64.60
2022-10-02T02:29:30.906Z,64.50
2022-10-02T02:32:00.212Z,64.50
2022-10-02T02:34:32.228Z,64.50
2022-10-02T02:37:06.423Z,64.50
2022-10-02T02:40:00.248Z,64.60
2022-10-02T02:42:32.206Z,64.80
2022-10-02T02:45:13.778Z,64.50
2022-10-02T02:47:52.931Z,64.40
2022-10-02T02:50:35.043Z,64.50
2022-10-02T02:53:18.155Z,64.70
2022-10-02T02:56:00.738Z,64.90
2022-10-02T02:58:42.452Z,65.00
2022-10-02T03:01:09.305Z,65.20
2022-10-02T03:03:36.413Z,65.20
2022-10-02T03:06:07.208Z,66.00
2022-10-02T03:08:39.404Z,65.40
2022-10-02T03:11:31.085Z,65.40
2022-10-02T03:14:13.005Z,65.40
2022-10-02T03:17:07.830Z,65.30
2022-10-02T03:20:05.651Z,65.30
2022-10-02T03:22:35.515Z,65.30
2022-10-02T03:25:26.492Z,65.10
2022-10-02T03:28:02.407Z,65.10
2022-10-02T03:30:31.537Z,65.60
2022-10-02T03:33:00.992Z,64.80
2022-10-02T03:35:29.238Z,64.60
2022-10-02T03:38:05.322Z,64.70
2022-10-02T03:40:32.087Z,64.80
2022-10-02T03:42:59.187Z,64.70
2022-10-02T03:45:49.427Z,64.70
2022-10-02T03:48:13.881Z,64.80
2022-10-02T03:50:40.784Z,64.50
2022-10-02T03:53:14.689Z,64.60
2022-10-02T03:55:47.040Z,64.90
2022-10-02T03:58:16.747Z,64.80
2022-10-02T04:00:52.334Z,64.90
2022-10-02T04:03:27.190Z,65.00
2022-10-02T04:06:11.388Z,65.00
2022-10-02T04:08:54.291Z,65.10
2022-10-02T04:11:43.331Z,65.20
2022-10-02T04:14:28.174Z,65.20
2022-10-02T04:16:57.672Z,64.90
2022-10-02T04:19:29.488Z,65.00
2022-10-02T04:22:13.436Z,65.10
2022-10-02T04:25:02.907Z,65.00
2022-10-02T04:27:42.159Z,65.00
2022-10-02T04:30:17.855Z,64.90
2022-10-02T04:32:45.116Z,65.00
2022-10-02T04:35:16.251Z,65.00
2022-10-02T04:38:02.211Z,65.00
2022-10-02T04:41:11.060Z,65.10
2022-10-02T04:44:04.523Z,65.20
2022-10-02T04:47:13.426Z,65.10
2022-10-02T04:49:48.943Z,65.00
2022-10-02T04:52:38.204Z,64.70
2022-10-02T04:55:13.847Z,64.70
2022-10-02T04:58:09.535Z,64.50
2022-10-02T05:01:17.740Z,64.50
2022-10-02T05:04:05.419Z,64.20
2022-10-02T05:06:42.304Z,64.10
2022-10-02T05:09:11.836Z,64.00
2022-10-02T05:12:04.023Z,63.90
2022-10-02T05:15:16.003Z,63.70
2022-10-02T05:18:03.608Z,63.70
2022-10-02T05:20:39.342Z,63.30
2022-10-02T05:23:12.077Z,63.20
2022-10-02T05:25:51.623Z,63.10
2022-10-02T05:28:27.513Z,63.20
2022-10-02T05:31:17.935Z,63.30
2022-10-02T05:34:05.700Z,65.40
2022-10-02T05:36:43.400Z,66.10
2022-10-02T05:39:36.592Z,67.60
2022-10-02T05:42:03.229Z,68.20
2022-10-02T05:44:51.390Z,68.10
2022-10-02T05:47:30.287Z,68.50
2022-10-02T05:50:05.918Z,68.90
2022-10-02T05:52:41.603Z,69.20
2022-10-02T05:55:43.599Z,69.50
2022-10-02T05:58:38.322Z,69.60
2022-10-02T06:01:27.798Z,69.60
2022-10-02T06:04:26.307Z,69.10
2022-10-02T06:06:56.252Z,69.20
2022-10-02T06:09:57.836Z,68.90
2022-10-02T06:12:30.669Z,69.50
2022-10-02T06:15:10.840Z,68.70
2022-10-02T06:17:54.972Z,69.00
2022-10-02T06:20:42.593Z,68.90
2022-10-02T06:23:19.983Z,68.60
2022-10-02T06:25:51.213Z,68.70
2022-10-02T06:28:21.855Z,68.50
2022-10-02T06:30:59.307Z,68.40
2022-10-02T06:33:30.094Z,68.50
2022-10-02T06:36:04.660Z,68.40
2022-10-02T06:38:49.931Z,68.50
2022-10-02T06:41:26.612Z,68.60
2022-10-02T06:44:28.503Z,69.50
2022-10-02T06:47:07.438Z,69.10
2022-10-02T06:49:48.943Z,68.90
2022-10-02T06:52:43.674Z,68.80
2022-10-02T06:55:55.626Z,68.90
2022-10-02T06:58:43.562Z,69.10
2022-10-02T07:01:31.521Z,69.00
2022-10-02T07:04:42.122Z,69.00
2022-10-02T07:07:30.067Z,69.10
2022-10-02T07:10:23.340Z,69.20
2022-10-02T07:13:19.218Z,69.50
2022-10-02T07:15:45.867Z,69.20
2022-10-02T07:18:32.120Z,68.70
2022-10-02T07:21:23.439Z,69.30
2022-10-02T07:24:21.574Z,70.00
2022-10-02T07:27:15.584Z,69.10
2022-10-02T07:30:03.102Z,69.40
2022-10-02T07:32:42.751Z,69.20
2022-10-02T07:35:28.093Z,69.20
2022-10-02T07:38:23.779Z,69.50
2022-10-02T07:41:18.584Z,69.60
2022-10-02T07:43:54.247Z,69.70
2022-10-02T07:46:30.807Z,69.20
2022-10-02T07:49:40.802Z,69.40
2022-10-02T07:52:16.266Z,69.80
2022-10-02T07:54:49.288Z,69.60
2022-10-02T07:57:43.824Z,69.50
2022-10-02T08:00:16.852Z,69.80
2022-10-02T08:02:50.182Z,69.50
2022-10-02T08:05:45.042Z,69.70
2022-10-02T08:08:38.610Z,70.40
2022-10-02T08:11:37.504Z,70.20
2022-10-02T08:14:14.958Z,69.70
2022-10-02T08:17:10.951Z,69.20
2022-10-02T08:19:43.283Z,69.50
2022-10-02T08:22:24.961Z,68.70
2022-10-02T08:25:03.038Z,68.90
2022-10-02T08:27:49.009Z,68.70
2022-10-02T08:30:16.139Z,68.70
2022-10-02T08:32:43.979Z,68.50
2022-10-02T08:35:14.148Z,68.40
2022-10-02T08:37:49.774Z,68.50
2022-10-02T08:40:33.161Z,68.70
2022-10-02T08:43:18.339Z,68.80
2022-10-02T08:46:03.835Z,68.40
2022-10-02T08:48:55.024Z,69.00
2022-10-02T08:52:05.450Z,68.00
2022-10-02T08:54:50.933Z,68.50
2022-10-02T08:57:39.640Z,67.40
2022-10-02T09:00:09.351Z,67.30
2022-10-02T09:03:14.289Z,66.60
2022-10-02T09:05:53.372Z,67.00
2022-10-02T09:08:47.848Z,66.70
2022-10-02T09:11:48.168Z,66.40
2022-10-02T09:14:39.126Z,66.30
2022-10-02T09:17:35.027Z,65.40
2022-10-02T09:20:31.503Z,65.00
2022-10-02T09:23:44.501Z,64.40
2022-10-02T09:26:34.282Z,64.60
2022-10-02T09:29:07.213Z,64.20
2022-10-02T09:32:07.824Z,63.60
2022-10-02T09:34:55.579Z,63.50
2022-10-02T09:37:31.653Z,63.20
2022-10-02T09:40:13.482Z,62.80
2022-10-02T09:42:58.534Z,62.30
2022-10-02T09:45:36.593Z,62.50
2022-10-02T09:48:15.249Z,61.30
2022-10-02T09:51:20.628Z,60.70
2022-10-02T09:54:25.327Z,59.40
2022-10-02T09:57:31.735Z,59.70
2022-10-02T10:00:12.015Z,58.60
2022-10-02T10:03:07.751Z,57.10
2022-10-02T10:05:53.407Z,57.70
2022-10-02T10:08:50.862Z,58.40
2022-10-02T10:11:58.267Z,59.20
2022-10-02T10:15:09.190Z,59.40
2022-10-02T10:17:56.772Z,60.10
2022-10-02T10:20:37.488Z,59.70
2022-10-02T10:23:25.973Z,59.80
2022-10-02T10:26:04.781Z,60.40
2022-10-02T10:28:40.054Z,60.60
2022-10-02T10:31:16.117Z,61.20
2022-10-02T10:34:26.176Z,60.70
2022-10-02T10:37:30.095Z,60.20
2022-10-02T10:40:11.831Z,59.90
2022-10-02T10:43:07.490Z,58.90
2022-10-02T10:46:03.845Z,56.70
2022-10-02T10:49:02.737Z,53.40
2022-10-02T10:51:41.516Z,48.90
2022-10-02T10:54:26.448Z,47.30
2022-10-02T10:57:22.231Z,44.40
2022-10-02T11:00:17.477Z,43.80
2022-10-02T11:02:56.213Z,42.20
2022-10-02T11:05:40.235Z,39.90
2022-10-02T11:08:43.257Z,40.80
2022-10-02T11:11:40.258Z,38.80
2022-10-02T11:14:35.314Z,41.40
2022-10-02T11:17:16.967Z,43.90
2022-10-02T11:20:10.271Z,46.50
2022-10-02T11:22:42.796Z,50.10
2022-10-02T11:25:38.850Z,52.30
2022-10-02T11:28:21.666Z,52.70
2022-10-02T11:31:03.995Z,52.30
2022-10-02T11:34:02.621Z,47.40
2022-10-02T11:36:52.492Z,47.10
2022-10-02T11:39:41.260Z,46.40
2022-10-02T11:42:36.922Z,45.80
2022-10-02T11:45:21.720Z,46.70
2022-10-02T11:48:16.518Z,44.90
2022-10-02T11:51:10.333Z,47.20
2022-10-02T11:53:51.671Z,45.90
2022-10-02T11:56:25.748Z,44.90
2022-10-02T11:59:18.724Z,45.70
2022-10-02T12:01:52.402Z,44.70
2022-10-02T12:04:40.656Z,41.90
2022-10-02T12:07:38.560Z,43.00
2022-10-02T12:10:36.413Z,43.70
2022-10-02T12:13:40.961Z,44.70
2022-10-02T12:16:43.279Z,44.80
2022-10-02T12:19:21.367Z,44.30
2022-10-02T12:22:34.747Z,45.30
2022-10-02T12:25:35.930Z,42.50
2022-10-02T12:28:21.986Z,42.80
2022-10-02T12:31:01.174Z,43.50
2022-10-02T12:33:56.433Z,44.80
2022-10-02T12:36:43.850Z,45.00
2022-10-02T12:39:38.687Z,47.00
2022-10-02T12:42:11.691Z,46.20
2022-10-02T12:44:47.643Z,45.30
2022-10-02T12:47:47.292Z,41.90
2022-10-02T12:50:23.484Z,43.40
2022-10-02T12:53:29.260Z,43.70
2022-10-02T12:56:18.320Z,43.50
2022-10-02T12:59:06.244Z,43.50
2022-10-02T13:02:14.943Z,42.80
2022-10-02T13:05:12.590Z,39.80
2022-10-02T13:08:01.235Z,38.30
2022-10-02T13:10:38.380Z,39.40
2022-10-02T13:13:15.794Z,39.10
2022-10-02T13:15:59.143Z,38.70
2022-10-02T13:18:52.599Z,37.60
2022-10-02T13:21:41.303Z,37.00
2022-10-02T13:24:34.021Z,35.80
2022-10-02T13:27:10.550Z,34.60
2022-10-02T13:29:56.096Z,35.70
2022-10-02T13:32:28.611Z,34.40
2022-10-02T13:35:10.780Z,33.80
2022-10-02T13:38:08.944Z,35.80
2022-10-02T13:41:06.679Z,36.80
2022-10-02T13:43:44.104Z,38.40
2022-10-02T13:46:16.730Z,36.90
2022-10-02T13:49:18.000Z,37.40
2022-10-02T13:52:02.294Z,39.00
2022-10-02T13:54:54.894Z,39.60
2022-10-02T13:57:44.645Z,38.80
2022-10-02T14:00:43.412Z,38.10
2022-10-02T14:03:40.648Z,38.80
2022-10-02T14:06:20.166Z,41.00
2022-10-02T14:09:23.100Z,39.80
2022-10-02T14:12:02.240Z,43.30
2022-10-02T14:14:51.084Z,42.10
2022-10-02T14:17:51.713Z,42.30
2022-10-02T14:20:18.999Z,40.90
2022-10-02T14:23:09.745Z,39.90
2022-10-02T14:25:48.982Z,40.10
2022-10-02T14:28:21.554Z,39.80
2022-10-02T14:31:07.550Z,41.00
2022-10-02T14:34:11.015Z,40.30
2022-10-02T14:36:55.724Z,41.60
2022-10-02T14:39:35.018Z,44.10
2022-10-02T14:42:38.344Z,44.90
2022-10-02T14:45:05.002Z,44.40
2022-10-02T14:47:56.734Z,45.10
2022-10-02T14:50:45.053Z,44.30
2022-10-02T14:53:30.705Z,44.90
2022-10-02T14:56:28.586Z,44.70
2022-10-02T14:59:18.064Z,45.70
2022-10-02T15:01:55.420Z,46.70
2022-10-02T15:04:39.729Z,46.00
2022-10-02T15:07:15.181Z,45.90
2022-10-02T15:10:02.418Z,45.10
2022-10-02T15:12:47.981Z,45.90
2022-10-02T15:15:26.715Z,45.80
2022-10-02T15:18:20.025Z,46.10
2022-10-02T15:20:55.082Z,46.00
2022-10-02T15:23:41.343Z,46.70
2022-10-02T15:26:20.005Z,46.80
2022-10-02T15:28:52.531Z,45.90
2022-10-02T15:31:31.773Z,46.60
2022-10-02T15:34:11.467Z,48.00
2022-10-02T15:37:04.492Z,47.40
2022-10-02T15:39:55.293Z,46.90
2022-10-02T15:42:48.022Z,45.30
2022-10-02T15:45:30.178Z,45.40
2022-10-02T15:48:25.033Z,46.00
2022-10-02T15:51:34.628Z,47.00
2022-10-02T15:54:10.299Z,47.50
2022-10-02T15:56:56.163Z,47.00
2022-10-02T15:59:47.621Z,47.10
2022-10-02T16:02:41.373Z,47.00
2022-10-02T16:05:17.864Z,47.20
2022-10-02T16:08:07.876Z,47.90
2022-10-02T16:10:54.707Z,48.40
2022-10-02T16:13:32.204Z,48.10
2022-10-02T16:16:20.924Z,48.90
2022-10-02T16:19:18.745Z,48.60
2022-10-02T16:22:18.157Z,48.60
2022-10-02T16:25:27.010Z,47.90
2022-10-02T16:28:00.073Z,48.60
2022-10-02T16:30:29.532Z,48.50
2022-10-02T16:33:11.825Z,49.10
2022-10-02T16:35:59.723Z,49.60
2022-10-02T16:38:48.856Z,50.40
2022-10-02T16:41:38.370Z,50.50
2022-10-02T16:44:41.206Z,50.50
2022-10-02T16:47:32.355Z,50.90
2022-10-02T16:50:27.210Z,51.10
2022-10-02T16:53:11.888Z,51.10
2022-10-02T16:55:45.061Z,51.30
2022-10-02T16:58:38.862Z,51.10
2022-10-02T17:01:27.314Z,52.90
2022-10-02T17:04:32.100Z,52.30
2022-10-02T17:07:18.225Z,52.00
2022-10-02T17:10:16.747Z,51.90
2022-10-02T17:13:16.752Z,51.90
2022-10-02T17:15:50.196Z,52.00
2022-10-02T17:18:16.912Z,51.90
2022-10-02T17:21:03.800Z,51.80
2022-10-02T17:23:42.652Z,51.80
2022-10-02T17:26:24.781Z,52.10
2022-10-02T17:29:23.732Z,52.40
2022-10-02T17:31:58.672Z,52.70
2022-10-02T17:34:44.229Z,52.80
2022-10-02T17:37:13.905Z,52.90
2022-10-02T17:39:59.564Z,53.00
2022-10-02T17:42:51.900Z,53.20
2022-10-02T17:45:31.885Z,53.30
2022-10-02T17:48:27.929Z,53.20
2022-10-02T17:51:00.456Z,53.20
2022-10-02T17:54:17.093Z,53.10
2022-10-02T17:57:06.319Z,53.30
2022-10-02T17:59:48.265Z,53.30
2022-10-02T18:02:39.807Z,53.10
2022-10-02T18:05:37.511Z,53.30
2022-10-02T18:08:30.361Z,53.60
2022-10-02T18:11:23.195Z,53.70
2022-10-02T18:14:34.567Z,54.00
2022-10-02T18:17:01.231Z,54.50
2022-10-02T18:19:37.100Z,54.70
2022-10-02T18:22:21.967Z,55.00
2022-10-02T18:24:57.595Z,55.20
2022-10-02T18:27:42.811Z,55.20
2022-10-02T18:30:19.809Z,55.30
2022-10-02T18:33:25.057Z,55.40
2022-10-02T18:36:24.581Z,55.70
2022-10-02T18:39:27.731Z,55.80
2022-10-02T18:41:55.999Z,55.70
2022-10-02T18:44:46.660Z,55.60
2022-10-02T18:47:38.642Z,55.70
2022-10-02T18:50:28.623Z,56.10
2022-10-02T18:53:28.702Z,56.10
2022-10-02T18:56:12.293Z,56.40
2022-10-02T18:58:48.970Z,56.40
2022-10-02T19:01:27.690Z,56.90
2022-10-02T19:04:34.400Z,56.40
2022-10-02T19:07:09.718Z,56.60
2022-10-02T19:09:36.586Z,56.80
2022-10-02T19:12:22.073Z,56.90
2022-10-02T19:14:55.739Z,57.00
2022-10-02T19:17:25.910Z,57.20
2022-10-02T19:19:54.081Z,57.30
2022-10-02T19:22:27.355Z,57.20
2022-10-02T19:25:19.403Z,57.20
2022-10-02T19:27:54.685Z,57.30
2022-10-02T19:30:29.833Z,57.30
2022-10-02T19:33:00.973Z,57.60
2022-10-02T19:35:34.679Z,57.40
2022-10-02T19:38:12.677Z,57.50
2022-10-02T19:40:40.501Z,57.50
2022-10-02T19:43:14.129Z,57.40
2022-10-02T19:45:42.894Z,57.60
2022-10-02T19:48:10.843Z,57.70
2022-10-02T19:50:51.121Z,57.90
2022-10-02T19:53:20.909Z,57.80
2022-10-02T19:55:59.920Z,57.80
2022-10-02T19:58:39.576Z,57.90
2022-10-02T20:01:14.566Z,58.10
2022-10-02T20:03:42.543Z,58.10
2022-10-02T20:06:16.568Z,57.80
2022-10-02T20:08:47.209Z,57.70
2022-10-02T20:11:36.241Z,57.70
2022-10-02T20:14:10.847Z,57.90
2022-10-02T20:16:57.557Z,57.80
2022-10-02T20:19:31.734Z,57.80
2022-10-02T20:22:01.707Z,57.80
2022-10-02T20:24:58.534Z,57.90
2022-10-02T20:27:47.267Z,58.10
2022-10-02T20:30:17.919Z,58.30
2022-10-02T20:32:57.795Z,58.10
2022-10-02T20:35:40.183Z,58.20
2022-10-02T20:38:31.872Z,58.20
2022-10-02T20:41:01.327Z,58.10
2022-10-02T20:44:06.301Z,58.10
2022-10-02T20:47:06.431Z,58.30
2022-10-02T20:50:08.771Z,58.40
2022-10-02T20:52:40.420Z,58.50
2022-10-02T20:55:26.556Z,58.20
2022-10-02T20:58:30.915Z,58.40
2022-10-02T21:01:18.422Z,58.70
2022-10-02T21:03:55.219Z,58.70
2022-10-02T21:06:53.931Z,58.80
2022-10-02T21:09:56.726Z,58.90
2022-10-02T21:12:38.472Z,59.20
2022-10-02T21:15:26.583Z,59.20
2022-10-02T21:18:31.748Z,59.10
2022-10-02T21:21:39.624Z,58.90
2022-10-02T21:24:27.941Z,59.00
2022-10-02T21:27:24.316Z,58.80
2022-10-02T21:30:14.420Z,58.70
2022-10-02T21:33:00.008Z,58.80
2022-10-02T21:35:46.077Z,59.00
2022-10-02T21:38:27.433Z,59.10
2022-10-02T21:41:21.024Z,59.10
2022-10-02T21:44:18.191Z,59.10
2022-10-02T21:47:22.762Z,59.20
2022-10-02T21:50:10.678Z,59.20
2022-10-02T21:53:03.094Z,59.10
2022-10-02T21:55:51.422Z,59.10
2022-10-02T21:58:55.752Z,59.20
2022-10-02T22:01:46.661Z,59.00
2022-10-02T22:04:22.915Z,58.90
2022-10-02T22:07:09.478Z,58.90
2022-10-02T22:09:53.759Z,58.90
2022-10-02T22:12:30.925Z,58.70
2022-10-02T22:15:31.431Z,58.90
2022-10-02T22:18:05.949Z,59.00
2022-10-02T22:21:11.869Z,58.90
2022-10-02T22:24:24.849Z,59.10
2022-10-02T22:27:00.632Z,59.00
2022-10-02T22:29:47.654Z,58.80
2022-10-02T22:33:04.225Z,59.10
2022-10-02T22:36:01.577Z,59.10
2022-10-02T22:38:41.855Z,59.20
2022-10-02T22:41:42.765Z,59.50
2022-10-02T22:44:35.358Z,59.60
2022-10-02T22:47:22.523Z,59.40
2022-10-02T22:50:01.624Z,59.60
2022-10-02T22:52:42.302Z,59.70
2022-10-02T22:55:34.043Z,59.50
2022-10-02T22:58:00.772Z,59.70
2022-10-02T23:00:36.336Z,59.60
2022-10-02T23:03:15.238Z,59.40
2022-10-02T23:05:50.289Z,59.40
2022-10-02T23:08:33.973Z,59.50
2022-10-02T23:11:26.339Z,59.50
2022-10-02T23:14:05.932Z,59.40
2022-10-02T23:16:39.430Z,59.50
2022-10-02T23:19:37.641Z,60.20
2022-10-02T23:22:10.616Z,59.60
2022-10-02T23:24:53.039Z,59.40
2022-10-02T23:27:35.362Z,59.60
2022-10-02T23:30:10.064Z,59.60
2022-10-02T23:33:02.879Z,59.50
2022-10-02T23:36:11.487Z,59.60
2022-10-02T23:38:52.377Z,59.40
2022-10-02T23:41:46.913Z,59.40
2022-10-02T23:44:25.608Z,59.30
2022-10-02T23:46:52.305Z,59.30
2022-10-02T23:49:35.075Z,59.30
2022-10-02T23:52:20.547Z,59.40
2022-10-02T23:54:47.362Z,59.60
2022-10-02T23:57:29.742Z,59.40
